Track Удовиченко Игорь

Time Latitude Longitude Accuracy (66% radius in meters) Altitude (meters) Speed (km/hour) Bearing (degrees) Battery (%) GPS flag
07:13:11 57.205188 60.116711 0 0 0 0 1 delete
07:13:10 57.205191 60.116680 0 0 0 0 1 delete
07:13:09 57.205193 60.116646 0 0 0 0 1 delete
07:13:08 57.205193 60.116611 0 0 0 0 1 delete
07:13:07 57.205193 60.116578 0 0 0 0 1 delete
07:13:06 57.205193 60.116545 0 0 0 0 1 delete
07:13:05 57.205195 60.116510 0 0 0 0 1 delete
07:13:04 57.205194 60.116477 0 0 0 0 1 delete
07:13:03 57.205193 60.116445 0 0 0 0 1 delete
07:13:02 57.205194 60.116416 0 0 0 0 1 delete
07:13:01 57.205196 60.116385 0 0 0 0 1 delete
07:13:00 57.205197 60.116353 0 0 0 0 1 delete
07:12:59 57.205197 60.116322 0 0 0 0 1 delete
07:12:58 57.205195 60.116290 0 0 0 0 1 delete
07:12:57 57.205194 60.116257 0 0 0 0 1 delete
07:12:56 57.205193 60.116220 0 0 0 0 1 delete
07:12:55 57.205195 60.116181 0 0 0 0 1 delete
07:12:54 57.205197 60.116139 0 0 0 0 1 delete
07:12:53 57.205202 60.116098 0 0 0 0 1 delete
07:12:52 57.205207 60.116059 0 0 0 0 1 delete
07:12:51 57.205210 60.116020 0 0 0 0 1 delete
07:12:50 57.205213 60.115982 0 0 0 0 1 delete
07:12:49 57.205219 60.115940 0 0 0 0 1 delete
07:12:48 57.205227 60.115899 0 0 0 0 1 delete
07:12:47 57.205238 60.115859 0 0 0 0 1 delete
07:12:46 57.205247 60.115819 0 0 0 0 1 delete
07:12:45 57.205256 60.115779 0 0 0 0 1 delete
07:12:44 57.205265 60.115738 0 0 0 0 1 delete
07:12:43 57.205273 60.115700 0 0 0 0 1 delete
07:12:42 57.205281 60.115663 0 0 0 0 1 delete
07:12:41 57.205289 60.115627 0 0 0 0 1 delete
07:12:40 57.205300 60.115592 0 0 0 0 1 delete
07:12:39 57.205310 60.115555 0 0 0 0 1 delete
07:12:38 57.205320 60.115521 0 0 0 0 1 delete
07:12:37 57.205326 60.115488 0 0 0 0 1 delete
07:12:36 57.205331 60.115458 0 0 0 0 1 delete
07:12:35 57.205337 60.115428 0 0 0 0 1 delete
07:12:34 57.205344 60.115398 0 0 0 0 1 delete
07:12:33 57.205347 60.115370 0 0 0 0 1 delete
07:12:32 57.205349 60.115338 0 0 0 0 1 delete
07:12:31 57.205345 60.115302 0 0 0 0 1 delete
07:12:30 57.205338 60.115266 0 0 0 0 1 delete
07:12:29 57.205323 60.115242 0 0 0 0 1 delete
07:12:28 57.205302 60.115232 0 0 0 0 1 delete
07:12:27 57.205277 60.115227 0 0 0 0 1 delete
07:12:26 57.205256 60.115216 0 0 0 0 1 delete
07:12:25 57.205241 60.115193 0 0 0 0 1 delete
07:12:24 57.205233 60.115158 0 0 0 0 1 delete
07:12:23 57.205228 60.115114 0 0 0 0 1 delete
07:12:22 57.205225 60.115068 0 0 0 0 1 delete